sensor_id;sensor_type;location;lat;lon;timestamp;temperature;humidity
67893;DHT22;54688;52.376;16.744;2023-02-10T00:02:33;-1.6;63.6
67893;DHT22;54688;52.376;16.744;2023-02-10T00:05:36;-1.6;63.6
67893;DHT22;54688;52.376;16.744;2023-02-10T00:08:38;-1.6;63.7
67893;DHT22;54688;52.376;16.744;2023-02-10T00:11:40;-1.7;63.8
67893;DHT22;54688;52.376;16.744;2023-02-10T00:14:42;-1.7;63.9
67893;DHT22;54688;52.376;16.744;2023-02-10T00:17:45;-1.7;64.2
67893;DHT22;54688;52.376;16.744;2023-02-10T00:20:47;-1.8;64.3
67893;DHT22;54688;52.376;16.744;2023-02-10T00:23:49;-1.8;64.4
67893;DHT22;54688;52.376;16.744;2023-02-10T00:26:52;-1.8;64.4
67893;DHT22;54688;52.376;16.744;2023-02-10T00:29:54;-1.9;64.5
67893;DHT22;54688;52.376;16.744;2023-02-10T00:32:56;-1.9;64.7
67893;DHT22;54688;52.376;16.744;2023-02-10T00:35:58;-1.9;64.6
67893;DHT22;54688;52.376;16.744;2023-02-10T00:39:00;-1.9;64.7
67893;DHT22;54688;52.376;16.744;2023-02-10T00:42:03;-1.9;64.7
67893;DHT22;54688;52.376;16.744;2023-02-10T00:45:05;-2;64.7
67893;DHT22;54688;52.376;16.744;2023-02-10T00:48:07;-2;65.1
67893;DHT22;54688;52.376;16.744;2023-02-10T00:51:09;-2.1;65.2
67893;DHT22;54688;52.376;16.744;2023-02-10T00:54:12;-2.1;65
67893;DHT22;54688;52.376;16.744;2023-02-10T00:57:15;-2.1;65.5
67893;DHT22;54688;52.376;16.744;2023-02-10T01:00:18;-2.2;65.6
67893;DHT22;54688;52.376;16.744;2023-02-10T01:03:20;-2.2;65.8
67893;DHT22;54688;52.376;16.744;2023-02-10T01:06:22;-2.3;66
67893;DHT22;54688;52.376;16.744;2023-02-10T01:09:24;-2.3;66.2
67893;DHT22;54688;52.376;16.744;2023-02-10T01:12:26;-2.3;66.4
67893;DHT22;54688;52.376;16.744;2023-02-10T01:15:28;-2.3;66.4
67893;DHT22;54688;52.376;16.744;2023-02-10T01:18:30;-2.3;66.4
67893;DHT22;54688;52.376;16.744;2023-02-10T01:21:32;-2.3;66.5
67893;DHT22;54688;52.376;16.744;2023-02-10T01:24:35;-2.2;66.5
67893;DHT22;54688;52.376;16.744;2023-02-10T01:27:37;-2.2;66.3
67893;DHT22;54688;52.376;16.744;2023-02-10T01:30:39;-2.1;66.2
67893;DHT22;54688;52.376;16.744;2023-02-10T01:33:42;-2;66.1
67893;DHT22;54688;52.376;16.744;2023-02-10T01:36:45;-2;65.8
67893;DHT22;54688;52.376;16.744;2023-02-10T01:39:47;-2;65.8
67893;DHT22;54688;52.376;16.744;2023-02-10T01:42:50;-1.9;65.8
67893;DHT22;54688;52.376;16.744;2023-02-10T01:45:53;-1.9;65.7
67893;DHT22;54688;52.376;16.744;2023-02-10T01:48:55;-1.8;65.7
67893;DHT22;54688;52.376;16.744;2023-02-10T01:52:02;-1.7;65.7
67893;DHT22;54688;52.376;16.744;2023-02-10T01:55:07;-1.6;65.5
67893;DHT22;54688;52.376;16.744;2023-02-10T01:58:13;-1.6;65.2
67893;DHT22;54688;52.376;16.744;2023-02-10T02:01:17;-1.5;65.2
67893;DHT22;54688;52.376;16.744;2023-02-10T02:04:19;-1.4;65
67893;DHT22;54688;52.376;16.744;2023-02-10T02:07:22;-1.3;64.7
67893;DHT22;54688;52.376;16.744;2023-02-10T02:10:30;-1.3;64.5
67893;DHT22;54688;52.376;16.744;2023-02-10T02:13:45;-1.2;64.8
67893;DHT22;54688;52.376;16.744;2023-02-10T02:16:58;-1.1;63.9
67893;DHT22;54688;52.376;16.744;2023-02-10T02:20:10;-1;63.8
67893;DHT22;54688;52.376;16.744;2023-02-10T02:23:28;-1;63.3
67893;DHT22;54688;52.376;16.744;2023-02-10T02:26:47;-0.9;63.3
67893;DHT22;54688;52.376;16.744;2023-02-10T02:30:02;-0.9;63.1
67893;DHT22;54688;52.376;16.744;2023-02-10T02:33:17;-0.9;63.1
67893;DHT22;54688;52.376;16.744;2023-02-10T02:36:23;-0.8;63
67893;DHT22;54688;52.376;16.744;2023-02-10T02:39:31;-0.8;62.7
67893;DHT22;54688;52.376;16.744;2023-02-10T02:42:34;-0.7;62.9
67893;DHT22;54688;52.376;16.744;2023-02-10T02:45:39;-0.7;62.9
67893;DHT22;54688;52.376;16.744;2023-02-10T02:48:51;-0.7;63
67893;DHT22;54688;52.376;16.744;2023-02-10T02:52:00;-0.7;63.2
67893;DHT22;54688;52.376;16.744;2023-02-10T02:55:07;-0.7;63
67893;DHT22;54688;52.376;16.744;2023-02-10T02:58:20;-0.6;63
67893;DHT22;54688;52.376;16.744;2023-02-10T03:01:29;-0.6;63
67893;DHT22;54688;52.376;16.744;2023-02-10T03:04:34;-0.6;62.3
67893;DHT22;54688;52.376;16.744;2023-02-10T03:07:36;-0.6;62.7
67893;DHT22;54688;52.376;16.744;2023-02-10T03:10:39;-0.5;62.7
67893;DHT22;54688;52.376;16.744;2023-02-10T03:16:40;-0.5;62.6
67893;DHT22;54688;52.376;16.744;2023-02-10T03:19:42;-0.5;62.5
67893;DHT22;54688;52.376;16.744;2023-02-10T03:22:44;-0.5;63.3
67893;DHT22;54688;52.376;16.744;2023-02-10T03:25:46;-0.5;62.7
67893;DHT22;54688;52.376;16.744;2023-02-10T03:28:49;-0.4;63
67893;DHT22;54688;52.376;16.744;2023-02-10T03:31:51;-0.4;63.1
67893;DHT22;54688;52.376;16.744;2023-02-10T03:34:53;-0.4;63.2
67893;DHT22;54688;52.376;16.744;2023-02-10T03:37:56;-0.4;63.2
67893;DHT22;54688;52.376;16.744;2023-02-10T03:40:58;-0.4;63.3
67893;DHT22;54688;52.376;16.744;2023-02-10T03:44:00;-0.4;63.4
67893;DHT22;54688;52.376;16.744;2023-02-10T03:47:02;-0.4;63.5
67893;DHT22;54688;52.376;16.744;2023-02-10T03:50:05;-0.4;63.8
67893;DHT22;54688;52.376;16.744;2023-02-10T03:53:07;-0.6;64.2
67893;DHT22;54688;52.376;16.744;2023-02-10T03:56:10;-0.6;64.8
67893;DHT22;54688;52.376;16.744;2023-02-10T03:59:12;-0.7;65
67893;DHT22;54688;52.376;16.744;2023-02-10T04:02:15;-0.8;65.3
67893;DHT22;54688;52.376;16.744;2023-02-10T04:05:17;-0.8;65.7
67893;DHT22;54688;52.376;16.744;2023-02-10T04:08:19;-0.9;65.9
67893;DHT22;54688;52.376;16.744;2023-02-10T04:11:21;-1;66.2
67893;DHT22;54688;52.376;16.744;2023-02-10T04:14:23;-1;66
67893;DHT22;54688;52.376;16.744;2023-02-10T04:17:24;-1;66.9
67893;DHT22;54688;52.376;16.744;2023-02-10T04:20:26;-1.1;67.2
67893;DHT22;54688;52.376;16.744;2023-02-10T04:23:29;-1.1;67.5
67893;DHT22;54688;52.376;16.744;2023-02-10T04:26:32;-1.1;67.8
67893;DHT22;54688;52.376;16.744;2023-02-10T04:29:34;-1.2;68
67893;DHT22;54688;52.376;16.744;2023-02-10T04:32:36;-1.2;68.4
67893;DHT22;54688;52.376;16.744;2023-02-10T04:35:38;-1.2;68.5
67893;DHT22;54688;52.376;16.744;2023-02-10T04:38:40;-1.2;68.5
67893;DHT22;54688;52.376;16.744;2023-02-10T04:41:43;-1.2;68.7
67893;DHT22;54688;52.376;16.744;2023-02-10T04:44:45;-1.2;68.8
67893;DHT22;54688;52.376;16.744;2023-02-10T04:47:48;-1.2;68.8
67893;DHT22;54688;52.376;16.744;2023-02-10T04:50:50;-1.3;69.2
67893;DHT22;54688;52.376;16.744;2023-02-10T04:53:52;-1.2;69.5
67893;DHT22;54688;52.376;16.744;2023-02-10T04:56:54;-1.3;69.8
67893;DHT22;54688;52.376;16.744;2023-02-10T04:59:56;-1.3;70
67893;DHT22;54688;52.376;16.744;2023-02-10T05:02:59;-1.3;70.1
67893;DHT22;54688;52.376;16.744;2023-02-10T05:06:05;-1.4;70.2
67893;DHT22;54688;52.376;16.744;2023-02-10T05:09:09;-1.3;70.4
67893;DHT22;54688;52.376;16.744;2023-02-10T05:12:11;-1.4;70.6
67893;DHT22;54688;52.376;16.744;2023-02-10T05:15:15;-1.4;70.9
67893;DHT22;54688;52.376;16.744;2023-02-10T05:18:17;-1.3;70.8
67893;DHT22;54688;52.376;16.744;2023-02-10T05:21:18;-1.3;70.2
67893;DHT22;54688;52.376;16.744;2023-02-10T05:24:20;-1.2;70.7
67893;DHT22;54688;52.376;16.744;2023-02-10T05:27:22;-1.2;70.7
67893;DHT22;54688;52.376;16.744;2023-02-10T05:30:24;-1.1;70.7
67893;DHT22;54688;52.376;16.744;2023-02-10T05:33:27;-1;69.7
67893;DHT22;54688;52.376;16.744;2023-02-10T05:36:29;-1.1;70.4
67893;DHT22;54688;52.376;16.744;2023-02-10T05:39:31;-1;70.4
67893;DHT22;54688;52.376;16.744;2023-02-10T05:42:33;-1.1;70.3
67893;DHT22;54688;52.376;16.744;2023-02-10T05:45:36;-1.1;70.3
67893;DHT22;54688;52.376;16.744;2023-02-10T05:48:38;-1;70.4
67893;DHT22;54688;52.376;16.744;2023-02-10T05:51:40;-1;70.3
67893;DHT22;54688;52.376;16.744;2023-02-10T05:54:43;-1;70.3
67893;DHT22;54688;52.376;16.744;2023-02-10T05:57:45;-0.9;70.2
67893;DHT22;54688;52.376;16.744;2023-02-10T06:00:47;-0.9;70
67893;DHT22;54688;52.376;16.744;2023-02-10T06:03:50;-0.8;69.9
67893;DHT22;54688;52.376;16.744;2023-02-10T06:06:52;-0.8;69.7
67893;DHT22;54688;52.376;16.744;2023-02-10T06:09:54;-0.7;69.6
67893;DHT22;54688;52.376;16.744;2023-02-10T06:12:57;-0.7;69.4
67893;DHT22;54688;52.376;16.744;2023-02-10T06:15:59;-0.6;69.5
67893;DHT22;54688;52.376;16.744;2023-02-10T06:19:01;-0.7;69.3
67893;DHT22;54688;52.376;16.744;2023-02-10T06:22:04;-0.7;69.4
67893;DHT22;54688;52.376;16.744;2023-02-10T06:25:07;-0.7;69.4
67893;DHT22;54688;52.376;16.744;2023-02-10T06:28:09;-0.6;69.6
67893;DHT22;54688;52.376;16.744;2023-02-10T06:31:12;-0.7;69.8
67893;DHT22;54688;52.376;16.744;2023-02-10T06:34:14;-0.7;70
67893;DHT22;54688;52.376;16.744;2023-02-10T06:40:16;-0.7;70.3
67893;DHT22;54688;52.376;16.744;2023-02-10T06:43:18;-0.6;70.4
67893;DHT22;54688;52.376;16.744;2023-02-10T06:46:20;-0.6;70.5
67893;DHT22;54688;52.376;16.744;2023-02-10T06:49:22;-0.5;70.6
67893;DHT22;54688;52.376;16.744;2023-02-10T06:52:23;-0.5;70.7
67893;DHT22;54688;52.376;16.744;2023-02-10T06:55:26;-0.5;70.6
67893;DHT22;54688;52.376;16.744;2023-02-10T06:58:28;-0.4;70.7
67893;DHT22;54688;52.376;16.744;2023-02-10T07:01:31;-0.3;70.6
67893;DHT22;54688;52.376;16.744;2023-02-10T07:04:33;-0.2;70.6
67893;DHT22;54688;52.376;16.744;2023-02-10T07:07:36;-0.2;70.4
67893;DHT22;54688;52.376;16.744;2023-02-10T07:10:39;-0.1;70.3
67893;DHT22;54688;52.376;16.744;2023-02-10T07:13:41;0;70.3
67893;DHT22;54688;52.376;16.744;2023-02-10T07:16:43;0;70
67893;DHT22;54688;52.376;16.744;2023-02-10T07:19:46;0.1;70
67893;DHT22;54688;52.376;16.744;2023-02-10T07:25:48;0.2;69.6
67893;DHT22;54688;52.376;16.744;2023-02-10T07:28:50;0.3;69.6
67893;DHT22;54688;52.376;16.744;2023-02-10T07:31:52;0.3;69.7
67893;DHT22;54688;52.376;16.744;2023-02-10T07:34:54;0.4;69.7
67893;DHT22;54688;52.376;16.744;2023-02-10T07:37:57;0.4;69.7
67893;DHT22;54688;52.376;16.744;2023-02-10T07:40:59;0.4;69.7
67893;DHT22;54688;52.376;16.744;2023-02-10T07:44:01;0.5;69.7
67893;DHT22;54688;52.376;16.744;2023-02-10T07:47:04;0.5;69.7
67893;DHT22;54688;52.376;16.744;2023-02-10T07:50:06;0.5;69.7
67893;DHT22;54688;52.376;16.744;2023-02-10T07:53:09;0.5;69.5
67893;DHT22;54688;52.376;16.744;2023-02-10T07:56:10;0.6;69.3
67893;DHT22;54688;52.376;16.744;2023-02-10T07:59:12;0.6;69.1
67893;DHT22;54688;52.376;16.744;2023-02-10T08:02:15;0.6;68.9
67893;DHT22;54688;52.376;16.744;2023-02-10T08:05:17;0.7;69.8
67893;DHT22;54688;52.376;16.744;2023-02-10T08:08:18;0.7;68.6
67893;DHT22;54688;52.376;16.744;2023-02-10T08:11:21;0.7;68.4
67893;DHT22;54688;52.376;16.744;2023-02-10T08:14:23;0.7;68.3
67893;DHT22;54688;52.376;16.744;2023-02-10T08:17:26;0.7;68.3
67893;DHT22;54688;52.376;16.744;2023-02-10T08:20:28;0.7;68.3
67893;DHT22;54688;52.376;16.744;2023-02-10T08:23:31;0.7;68.2
67893;DHT22;54688;52.376;16.744;2023-02-10T08:26:33;0.7;68.5
67893;DHT22;54688;52.376;16.744;2023-02-10T08:29:35;0.8;68.4
67893;DHT22;54688;52.376;16.744;2023-02-10T08:32:38;0.8;68.2
67893;DHT22;54688;52.376;16.744;2023-02-10T08:35:41;0.8;68.3
67893;DHT22;54688;52.376;16.744;2023-02-10T08:38:44;0.9;68.1
67893;DHT22;54688;52.376;16.744;2023-02-10T08:41:48;0.9;68
67893;DHT22;54688;52.376;16.744;2023-02-10T08:44:50;1;67.8
67893;DHT22;54688;52.376;16.744;2023-02-10T08:47:52;1;68
67893;DHT22;54688;52.376;16.744;2023-02-10T08:50:56;1;68
67893;DHT22;54688;52.376;16.744;2023-02-10T08:53:59;1.1;67.9
67893;DHT22;54688;52.376;16.744;2023-02-10T08:57:02;1.1;67.9
67893;DHT22;54688;52.376;16.744;2023-02-10T09:00:06;1.1;68.1
67893;DHT22;54688;52.376;16.744;2023-02-10T09:03:09;1.1;68.1
67893;DHT22;54688;52.376;16.744;2023-02-10T09:06:12;1.2;68.1
67893;DHT22;54688;52.376;16.744;2023-02-10T09:09:16;1.2;68.1
67893;DHT22;54688;52.376;16.744;2023-02-10T09:12:20;1.2;68.3
67893;DHT22;54688;52.376;16.744;2023-02-10T09:15:22;1.3;68.4
67893;DHT22;54688;52.376;16.744;2023-02-10T09:24:24;1.3;68.4
67893;DHT22;54688;52.376;16.744;2023-02-10T09:27:26;1.4;68.2
67893;DHT22;54688;52.376;16.744;2023-02-10T09:33:28;1.5;68.5
67893;DHT22;54688;52.376;16.744;2023-02-10T09:36:30;1.6;68.5
67893;DHT22;54688;52.376;16.744;2023-02-10T09:39:32;1.7;68.3
67893;DHT22;54688;52.376;16.744;2023-02-10T09:42:40;1.7;68.3
67893;DHT22;54688;52.376;16.744;2023-02-10T09:45:55;1.8;68.2
67893;DHT22;54688;52.376;16.744;2023-02-10T09:49:05;1.8;68
67893;DHT22;54688;52.376;16.744;2023-02-10T09:52:22;1.8;68
67893;DHT22;54688;52.376;16.744;2023-02-10T09:55:34;1.8;68.2
67893;DHT22;54688;52.376;16.744;2023-02-10T09:58:41;1.8;68.2
67893;DHT22;54688;52.376;16.744;2023-02-10T10:04:45;1.9;68.2
67893;DHT22;54688;52.376;16.744;2023-02-10T10:07:49;1.9;68
67893;DHT22;54688;52.376;16.744;2023-02-10T10:10:55;1.9;68.1
67893;DHT22;54688;52.376;16.744;2023-02-10T10:14:01;2;68.1
67893;DHT22;54688;52.376;16.744;2023-02-10T10:17:11;1.9;67.9
67893;DHT22;54688;52.376;16.744;2023-02-10T10:20:29;2;68
67893;DHT22;54688;52.376;16.744;2023-02-10T10:23:43;2;68.1
67893;DHT22;54688;52.376;16.744;2023-02-10T10:26:54;2;68.1
67893;DHT22;54688;52.376;16.744;2023-02-10T10:30:06;1.9;68.1
67893;DHT22;54688;52.376;16.744;2023-02-10T10:33:17;1.9;68.3
67893;DHT22;54688;52.376;16.744;2023-02-10T10:36:23;1.8;68.6
67893;DHT22;54688;52.376;16.744;2023-02-10T10:39:33;1.9;68.9
67893;DHT22;54688;52.376;16.744;2023-02-10T10:42:41;1.9;68.7
67893;DHT22;54688;52.376;16.744;2023-02-10T10:45:46;2;68.7
67893;DHT22;54688;52.376;16.744;2023-02-10T10:48:51;2.1;68.2
67893;DHT22;54688;52.376;16.744;2023-02-10T10:51:54;2.2;68
67893;DHT22;54688;52.376;16.744;2023-02-10T10:54:56;2.2;67.8
67893;DHT22;54688;52.376;16.744;2023-02-10T10:57:59;2.3;67.6
67893;DHT22;54688;52.376;16.744;2023-02-10T11:01:04;2.3;67.5
67893;DHT22;54688;52.376;16.744;2023-02-10T11:04:06;2.2;67.7
67893;DHT22;54688;52.376;16.744;2023-02-10T11:07:16;2.2;67.8
67893;DHT22;54688;52.376;16.744;2023-02-10T11:13:21;2.2;67.9
67893;DHT22;54688;52.376;16.744;2023-02-10T11:16:24;2.2;68.1
67893;DHT22;54688;52.376;16.744;2023-02-10T11:19:27;2.3;68.3
67893;DHT22;54688;52.376;16.744;2023-02-10T11:22:32;2.4;68.2
67893;DHT22;54688;52.376;16.744;2023-02-10T11:25:38;2.4;68.1
67893;DHT22;54688;52.376;16.744;2023-02-10T11:28:41;2.4;68.6
67893;DHT22;54688;52.376;16.744;2023-02-10T11:31:44;2.4;68.4
67893;DHT22;54688;52.376;16.744;2023-02-10T11:34:47;2.4;68.5
67893;DHT22;54688;52.376;16.744;2023-02-10T11:37:53;2.4;68.7
67893;DHT22;54688;52.376;16.744;2023-02-10T11:40:58;2.5;68.8
67893;DHT22;54688;52.376;16.744;2023-02-10T11:44:02;2.5;68.9
67893;DHT22;54688;52.376;16.744;2023-02-10T11:47:11;2.5;69.1
67893;DHT22;54688;52.376;16.744;2023-02-10T11:50:18;2.5;69.3
67893;DHT22;54688;52.376;16.744;2023-02-10T11:53:24;2.5;69.4
67893;DHT22;54688;52.376;16.744;2023-02-10T11:56:29;2.6;69.6
67893;DHT22;54688;52.376;16.744;2023-02-10T11:59:42;2.6;69.2
67893;DHT22;54688;52.376;16.744;2023-02-10T12:04:59;2.6;68.9
67893;DHT22;54688;52.376;16.744;2023-02-10T12:08:15;2.6;69
67893;DHT22;54688;52.376;16.744;2023-02-10T12:11:27;2.6;69
67893;DHT22;54688;52.376;16.744;2023-02-10T12:14:40;2.6;69.1
67893;DHT22;54688;52.376;16.744;2023-02-10T12:17:54;2.5;69.1
67893;DHT22;54688;52.376;16.744;2023-02-10T12:21:09;2.5;69.3
67893;DHT22;54688;52.376;16.744;2023-02-10T12:24:24;2.5;69.4
67893;DHT22;54688;52.376;16.744;2023-02-10T12:27:40;2.6;69.7
67893;DHT22;54688;52.376;16.744;2023-02-10T12:30:51;2.8;69.9
67893;DHT22;54688;52.376;16.744;2023-02-10T12:37:00;3.3;68.4
67893;DHT22;54688;52.376;16.744;2023-02-10T12:40:16;3.5;67.6
67893;DHT22;54688;52.376;16.744;2023-02-10T12:43:31;3.7;66.9
67893;DHT22;54688;52.376;16.744;2023-02-10T12:46:43;3.8;66.7
67893;DHT22;54688;52.376;16.744;2023-02-10T12:49:57;3.8;66.6
67893;DHT22;54688;52.376;16.744;2023-02-10T12:53:08;3.8;66.2
67893;DHT22;54688;52.376;16.744;2023-02-10T12:56:14;3.7;66.1
67893;DHT22;54688;52.376;16.744;2023-02-10T12:59:23;3.8;66.6
67893;DHT22;54688;52.376;16.744;2023-02-10T13:02:31;3.7;66.5
67893;DHT22;54688;52.376;16.744;2023-02-10T13:05:41;3.7;66.7
67893;DHT22;54688;52.376;16.744;2023-02-10T13:08:48;3.7;66.8
67893;DHT22;54688;52.376;16.744;2023-02-10T13:11:58;3.7;66.7
67893;DHT22;54688;52.376;16.744;2023-02-10T13:15:12;3.7;66.7
67893;DHT22;54688;52.376;16.744;2023-02-10T13:18:17;3.8;66.6
67893;DHT22;54688;52.376;16.744;2023-02-10T13:21:22;3.7;66.7
67893;DHT22;54688;52.376;16.744;2023-02-10T13:24:31;3.8;67
67893;DHT22;54688;52.376;16.744;2023-02-10T13:27:45;3.8;66.8
67893;DHT22;54688;52.376;16.744;2023-02-10T13:31:31;3.9;66.7
67893;DHT22;54688;52.376;16.744;2023-02-10T13:34:49;3.9;66.5
67893;DHT22;54688;52.376;16.744;2023-02-10T13:37:55;4;66.3
67893;DHT22;54688;52.376;16.744;2023-02-10T13:44:00;4.1;66.5
67893;DHT22;54688;52.376;16.744;2023-02-10T13:47:11;4.1;66.2
67893;DHT22;54688;52.376;16.744;2023-02-10T13:50:22;4.1;66.4
67893;DHT22;54688;52.376;16.744;2023-02-10T13:53:36;4.1;66.6
67893;DHT22;54688;52.376;16.744;2023-02-10T13:56:40;4.1;67.2
67893;DHT22;54688;52.376;16.744;2023-02-10T13:59:42;4.1;66.5
67893;DHT22;54688;52.376;16.744;2023-02-10T14:02:44;4.1;66.8
67893;DHT22;54688;52.376;16.744;2023-02-10T14:06:00;4.1;66.8
67893;DHT22;54688;52.376;16.744;2023-02-10T14:09:05;4.1;66.8
67893;DHT22;54688;52.376;16.744;2023-02-10T14:12:24;4.2;66.7
67893;DHT22;54688;52.376;16.744;2023-02-10T14:15:29;4.1;66.8
67893;DHT22;54688;52.376;16.744;2023-02-10T14:18:33;4.2;67.5
67893;DHT22;54688;52.376;16.744;2023-02-10T14:21:37;4.2;66.8
67893;DHT22;54688;52.376;16.744;2023-02-10T14:24:42;4.2;66.8
67893;DHT22;54688;52.376;16.744;2023-02-10T14:27:46;4.2;65.9
67893;DHT22;54688;52.376;16.744;2023-02-10T14:30:51;4.2;66
67893;DHT22;54688;52.376;16.744;2023-02-10T14:33:56;4.2;66.2
67893;DHT22;54688;52.376;16.744;2023-02-10T14:37:01;4.2;66.8
67893;DHT22;54688;52.376;16.744;2023-02-10T14:40:15;4.1;66.4
67893;DHT22;54688;52.376;16.744;2023-02-10T14:43:21;4.1;66.1
67893;DHT22;54688;52.376;16.744;2023-02-10T14:46:27;4.1;66.7
67893;DHT22;54688;52.376;16.744;2023-02-10T14:49:33;4.1;66.8
67893;DHT22;54688;52.376;16.744;2023-02-10T14:52:36;4;66.7
67893;DHT22;54688;52.376;16.744;2023-02-10T14:55:52;4;66.8
67893;DHT22;54688;52.376;16.744;2023-02-10T14:58:55;4;66.8
67893;DHT22;54688;52.376;16.744;2023-02-10T15:01:58;4;67
67893;DHT22;54688;52.376;16.744;2023-02-10T15:05:02;4;67.1
67893;DHT22;54688;52.376;16.744;2023-02-10T15:08:14;4;67.2
67893;DHT22;54688;52.376;16.744;2023-02-10T15:11:20;3.9;67.3
67893;DHT22;54688;52.376;16.744;2023-02-10T15:14:24;3.9;67.4
67893;DHT22;54688;52.376;16.744;2023-02-10T15:17:29;3.8;67.6
67893;DHT22;54688;52.376;16.744;2023-02-10T15:20:35;3.7;67.7
67893;DHT22;54688;52.376;16.744;2023-02-10T15:23:45;3.7;68.2
67893;DHT22;54688;52.376;16.744;2023-02-10T15:26:48;3.6;68.5
67893;DHT22;54688;52.376;16.744;2023-02-10T15:29:51;3.6;68.6
67893;DHT22;54688;52.376;16.744;2023-02-10T15:32:54;3.5;68.7
67893;DHT22;54688;52.376;16.744;2023-02-10T15:36:02;3.5;68.9
67893;DHT22;54688;52.376;16.744;2023-02-10T15:39:17;3.4;69.7
67893;DHT22;54688;52.376;16.744;2023-02-10T15:42:25;3.4;69.9
67893;DHT22;54688;52.376;16.744;2023-02-10T15:45:28;3.4;69.6
67893;DHT22;54688;52.376;16.744;2023-02-10T15:48:31;3.4;69.4
67893;DHT22;54688;52.376;16.744;2023-02-10T15:51:36;3.5;69.5
67893;DHT22;54688;52.376;16.744;2023-02-10T15:54:42;3.4;69.7
67893;DHT22;54688;52.376;16.744;2023-02-10T15:57:44;3.4;70
67893;DHT22;54688;52.376;16.744;2023-02-10T16:00:46;3.4;69.9
67893;DHT22;54688;52.376;16.744;2023-02-10T16:03:48;3.4;70
67893;DHT22;54688;52.376;16.744;2023-02-10T16:06:50;3.4;70
67893;DHT22;54688;52.376;16.744;2023-02-10T16:09:54;3.4;70.3
67893;DHT22;54688;52.376;16.744;2023-02-10T16:12:57;3.4;70.1
67893;DHT22;54688;52.376;16.744;2023-02-10T16:16:00;3.4;70.2
67893;DHT22;54688;52.376;16.744;2023-02-10T16:19:02;3.4;70
67893;DHT22;54688;52.376;16.744;2023-02-10T16:22:04;3.4;70.3
67893;DHT22;54688;52.376;16.744;2023-02-10T16:25:07;3.4;70.5
67893;DHT22;54688;52.376;16.744;2023-02-10T16:28:10;3.4;70.6
67893;DHT22;54688;52.376;16.744;2023-02-10T16:31:16;3.4;70.5
67893;DHT22;54688;52.376;16.744;2023-02-10T16:34:19;3.4;71.1
67893;DHT22;54688;52.376;16.744;2023-02-10T16:37:21;3.4;70.7
67893;DHT22;54688;52.376;16.744;2023-02-10T16:40:24;3.4;70.7
67893;DHT22;54688;52.376;16.744;2023-02-10T16:43:27;3.4;70.7
67893;DHT22;54688;52.376;16.744;2023-02-10T16:46:29;3.3;70.9
67893;DHT22;54688;52.376;16.744;2023-02-10T16:49:31;3.4;70.8
67893;DHT22;54688;52.376;16.744;2023-02-10T16:52:33;3.3;70.9
67893;DHT22;54688;52.376;16.744;2023-02-10T16:55:36;3.3;71
67893;DHT22;54688;52.376;16.744;2023-02-10T16:58:40;3.3;70.8
67893;DHT22;54688;52.376;16.744;2023-02-10T17:01:41;3.3;70.8
67893;DHT22;54688;52.376;16.744;2023-02-10T17:04:43;3.3;70.9
67893;DHT22;54688;52.376;16.744;2023-02-10T17:07:45;3.3;71.2
67893;DHT22;54688;52.376;16.744;2023-02-10T17:10:48;3.3;71
67893;DHT22;54688;52.376;16.744;2023-02-10T17:13:50;3.3;70.8
67893;DHT22;54688;52.376;16.744;2023-02-10T17:16:52;3.3;71.3
67893;DHT22;54688;52.376;16.744;2023-02-10T17:19:55;3.3;71.3
67893;DHT22;54688;52.376;16.744;2023-02-10T17:22:56;3.3;71.2
67893;DHT22;54688;52.376;16.744;2023-02-10T17:25:59;3.3;71.3
67893;DHT22;54688;52.376;16.744;2023-02-10T17:29:01;3.2;71.3
67893;DHT22;54688;52.376;16.744;2023-02-10T17:32:03;3.3;71.3
67893;DHT22;54688;52.376;16.744;2023-02-10T17:35:08;3.3;71.3
67893;DHT22;54688;52.376;16.744;2023-02-10T17:38:11;3.2;71.2
67893;DHT22;54688;52.376;16.744;2023-02-10T17:41:13;3.2;71.2
67893;DHT22;54688;52.376;16.744;2023-02-10T17:44:16;3.2;71.4
67893;DHT22;54688;52.376;16.744;2023-02-10T17:47:19;3.3;71.3
67893;DHT22;54688;52.376;16.744;2023-02-10T17:50:21;3.3;71.3
67893;DHT22;54688;52.376;16.744;2023-02-10T17:53:23;3.2;71.2
67893;DHT22;54688;52.376;16.744;2023-02-10T17:56:25;3.2;71.3
67893;DHT22;54688;52.376;16.744;2023-02-10T17:59:27;3.3;71.3
67893;DHT22;54688;52.376;16.744;2023-02-10T18:02:30;3.2;71.2
67893;DHT22;54688;52.376;16.744;2023-02-10T18:05:33;3.2;71.2
67893;DHT22;54688;52.376;16.744;2023-02-10T18:08:35;3.2;71.3
67893;DHT22;54688;52.376;16.744;2023-02-10T18:11:37;3.2;71.4
67893;DHT22;54688;52.376;16.744;2023-02-10T18:14:40;3.1;71.6
67893;DHT22;54688;52.376;16.744;2023-02-10T18:17:44;3.1;71.6
67893;DHT22;54688;52.376;16.744;2023-02-10T18:20:47;3.1;71.5
67893;DHT22;54688;52.376;16.744;2023-02-10T18:23:49;3.1;71.4
67893;DHT22;54688;52.376;16.744;2023-02-10T18:26:52;3.1;71.7
67893;DHT22;54688;52.376;16.744;2023-02-10T18:29:54;3.1;71.5
67893;DHT22;54688;52.376;16.744;2023-02-10T18:32:57;3.1;71.4
67893;DHT22;54688;52.376;16.744;2023-02-10T18:35:59;3.1;71.5
67893;DHT22;54688;52.376;16.744;2023-02-10T18:39:02;3.1;71.3
67893;DHT22;54688;52.376;16.744;2023-02-10T18:48:03;3.1;71.4
67893;DHT22;54688;52.376;16.744;2023-02-10T18:51:06;3;71.4
67893;DHT22;54688;52.376;16.744;2023-02-10T18:54:09;3;71.6
67893;DHT22;54688;52.376;16.744;2023-02-10T18:57:12;3;71.8
67893;DHT22;54688;52.376;16.744;2023-02-10T19:00:15;2.9;71.9
67893;DHT22;54688;52.376;16.744;2023-02-10T19:03:18;2.9;72
67893;DHT22;54688;52.376;16.744;2023-02-10T19:06:19;2.9;72.1
67893;DHT22;54688;52.376;16.744;2023-02-10T19:09:22;2.8;71.3
67893;DHT22;54688;52.376;16.744;2023-02-10T19:12:24;2.8;72
67893;DHT22;54688;52.376;16.744;2023-02-10T19:15:27;2.8;72.1
67893;DHT22;54688;52.376;16.744;2023-02-10T19:18:30;2.8;72.1
67893;DHT22;54688;52.376;16.744;2023-02-10T19:21:32;2.8;72.3
67893;DHT22;54688;52.376;16.744;2023-02-10T19:24:35;2.8;72.3
67893;DHT22;54688;52.376;16.744;2023-02-10T19:27:38;2.8;72.2
67893;DHT22;54688;52.376;16.744;2023-02-10T19:30:43;2.7;72.3
67893;DHT22;54688;52.376;16.744;2023-02-10T19:33:46;2.7;72.2
67893;DHT22;54688;52.376;16.744;2023-02-10T19:36:48;2.7;72.4
67893;DHT22;54688;52.376;16.744;2023-02-10T19:39:51;2.6;72.4
67893;DHT22;54688;52.376;16.744;2023-02-10T19:42:54;2.6;72.5
67893;DHT22;54688;52.376;16.744;2023-02-10T19:45:57;2.6;72.5
67893;DHT22;54688;52.376;16.744;2023-02-10T19:49:00;2.6;72.5
67893;DHT22;54688;52.376;16.744;2023-02-10T19:52:02;2.6;72.6
67893;DHT22;54688;52.376;16.744;2023-02-10T19:55:04;2.6;73.2
67893;DHT22;54688;52.376;16.744;2023-02-10T19:58:07;2.5;72.8
67893;DHT22;54688;52.376;16.744;2023-02-10T20:01:09;2.6;72.9
67893;DHT22;54688;52.376;16.744;2023-02-10T20:04:14;2.6;73
67893;DHT22;54688;52.376;16.744;2023-02-10T20:07:17;2.6;73
67893;DHT22;54688;52.376;16.744;2023-02-10T20:10:19;2.6;72.9
67893;DHT22;54688;52.376;16.744;2023-02-10T20:13:23;2.6;73.1
67893;DHT22;54688;52.376;16.744;2023-02-10T20:16:26;2.6;73
67893;DHT22;54688;52.376;16.744;2023-02-10T20:19:28;2.5;73
67893;DHT22;54688;52.376;16.744;2023-02-10T20:22:30;2.4;73.2
67893;DHT22;54688;52.376;16.744;2023-02-10T20:25:33;2.4;73.4
67893;DHT22;54688;52.376;16.744;2023-02-10T20:28:35;2.3;73.7
67893;DHT22;54688;52.376;16.744;2023-02-10T20:31:38;2.3;73.9
67893;DHT22;54688;52.376;16.744;2023-02-10T20:34:40;2.3;73.8
67893;DHT22;54688;52.376;16.744;2023-02-10T20:37:42;2.3;73.9
67893;DHT22;54688;52.376;16.744;2023-02-10T20:40:44;2.3;73.8
67893;DHT22;54688;52.376;16.744;2023-02-10T20:43:47;2.2;73.7